Paisaje, Colorado
Current Conditions -  °F | °C
As of 1:52 AM on Saturday 25 Oct 2014 (Local Time) from KALS Reporting Station
Clear Clear  
Wind Chill: 31°   Ceiling: Unl
Heat Index: 35°   Visibility: 10mi
Dew Point: 25°   Wind: 5mph
Humidity: 67%   Direction: 260°W
Pressure: 30.41"   Gusts: NA
Location:  37.1816°N, 106.262°W
Report Text: KALS 250752Z AUTO 26004KT 10SM CLR 02/M04 A3041 RMK AO2 SLP239 T00171039
Loading
Personal Weather Stations






























Interactive Weather Map
Tropical Storm Tracking
New forecast layout! Learn more

10-Day Weather Forecast

Advertisements
Track Severe Weather on mobile